createdAt,value
2018-03-07T00:00:49.774Z,242.27
2018-03-07T00:03:17.536Z,228.00
2018-03-07T00:05:45.359Z,223.30
2018-03-07T00:08:13.118Z,214.70
2018-03-07T00:10:40.977Z,218.48
2018-03-07T00:13:09.555Z,189.52
2018-03-07T00:15:38.080Z,217.18
2018-03-07T00:18:05.866Z,204.10
2018-03-07T00:20:33.686Z,196.65
2018-03-07T00:23:01.442Z,210.48
2018-03-07T00:25:29.202Z,189.87
2018-03-07T00:27:57.015Z,208.43
2018-03-07T00:30:24.780Z,198.02
2018-03-07T00:32:52.546Z,197.32
2018-03-07T00:35:20.362Z,189.50
2018-03-07T00:37:48.122Z,200.13
2018-03-07T00:40:15.886Z,180.50
2018-03-07T00:42:43.706Z,177.62
2018-03-07T00:45:12.236Z,168.07
2018-03-07T00:47:39.998Z,159.63
2018-03-07T00:50:07.805Z,151.10
2018-03-07T00:52:36.358Z,146.55
2018-03-07T00:55:04.141Z,151.23
2018-03-07T00:57:31.962Z,135.70
2018-03-07T00:59:59.732Z,136.25
2018-03-07T01:02:27.490Z,132.85
2018-03-07T01:04:55.330Z,148.10
2018-03-07T01:07:23.094Z,117.57
2018-03-07T01:09:50.850Z,119.20
2018-03-07T01:12:18.665Z,110.03
2018-03-07T01:14:46.410Z,93.07
2018-03-07T01:17:14.165Z,110.15
2018-03-07T01:19:42.000Z,118.25
2018-03-07T01:22:09.759Z,94.65
2018-03-07T01:24:37.517Z,112.30
2018-03-07T01:27:05.331Z,105.65
2018-03-07T01:29:33.092Z,97.10
2018-03-07T01:32:00.857Z,117.97
2018-03-07T01:34:28.664Z,110.85
2018-03-07T01:36:57.182Z,98.20
2018-03-07T01:39:24.946Z,109.00
2018-03-07T01:41:52.759Z,113.53
2018-03-07T01:44:21.279Z,108.03
2018-03-07T01:46:49.036Z,94.57
2018-03-07T01:49:16.842Z,93.00
2018-03-07T01:51:56.373Z,86.07
2018-03-07T01:54:24.182Z,68.93
2018-03-07T01:56:51.940Z,81.68
2018-03-07T01:59:19.681Z,75.43
2018-03-07T02:01:48.254Z,68.43
2018-03-07T02:04:16.770Z,60.35
2018-03-07T02:06:44.532Z,62.88
2018-03-07T02:09:12.338Z,56.80
2018-03-07T02:11:40.091Z,53.22
2018-03-07T02:14:07.849Z,62.38
2018-03-07T02:16:35.657Z,52.10
2018-03-07T02:19:04.182Z,40.60
2018-03-07T02:21:31.926Z,50.70
2018-03-07T02:23:59.738Z,42.00
2018-03-07T02:26:27.491Z,40.30
2018-03-07T02:28:55.264Z,41.75
2018-03-07T02:31:23.075Z,46.55
2018-03-07T02:33:50.828Z,36.97
2018-03-07T02:36:30.492Z,39.25
2018-03-07T02:38:58.243Z,46.28
2018-03-07T02:41:25.995Z,37.97
2018-03-07T02:43:53.802Z,39.90
2018-03-07T02:46:21.586Z,40.58
2018-03-07T02:48:50.099Z,37.22
2018-03-07T02:51:17.902Z,38.20
2018-03-07T02:53:45.651Z,37.35
2018-03-07T02:56:13.406Z,40.88
2018-03-07T02:58:41.218Z,40.05
2018-03-07T03:01:09.745Z,39.08
2018-03-07T03:03:37.512Z,41.97
2018-03-07T03:06:05.330Z,36.90
2018-03-07T03:08:33.872Z,44.88
2018-03-07T03:11:01.624Z,38.42
2018-03-07T03:13:29.443Z,46.10
2018-03-07T03:15:57.194Z,39.03
2018-03-07T03:18:25.715Z,49.95
2018-03-07T03:20:53.525Z,50.67
2018-03-07T03:23:22.042Z,46.45
2018-03-07T03:25:49.790Z,39.55
2018-03-07T03:28:17.594Z,44.80
2018-03-07T03:30:46.111Z,40.67
2018-03-07T03:33:14.636Z,38.58
2018-03-07T03:35:42.469Z,43.50
2018-03-07T03:38:10.218Z,39.33
2018-03-07T03:40:38.750Z,42.65
2018-03-07T03:43:06.556Z,43.97
2018-03-07T03:45:35.090Z,42.92
2018-03-07T03:48:02.848Z,44.08
2018-03-07T03:50:30.652Z,48.47
2018-03-07T03:52:59.153Z,45.70
2018-03-07T03:55:27.674Z,52.47
2018-03-07T03:57:55.486Z,45.85
2018-03-07T04:00:24.009Z,48.87
2018-03-07T04:02:51.764Z,51.55
2018-03-07T04:05:19.586Z,44.60
2018-03-07T04:07:48.110Z,49.70
2018-03-07T04:10:15.857Z,44.45
2018-03-07T04:12:43.688Z,48.35
2018-03-07T04:15:11.440Z,52.13
2018-03-07T04:17:39.205Z,53.03
2018-03-07T04:20:07.010Z,56.13
2018-03-07T04:22:34.757Z,50.58
2018-03-07T04:25:02.512Z,51.83
2018-03-07T04:27:31.103Z,47.75
2018-03-07T04:29:58.857Z,50.10
2018-03-07T04:32:27.371Z,46.90
2018-03-07T04:34:55.207Z,45.35
2018-03-07T04:37:22.962Z,53.38
2018-03-07T04:39:51.492Z,44.55
2018-03-07T04:42:19.300Z,48.35
2018-03-07T04:44:47.122Z,50.63
2018-03-07T04:47:14.890Z,45.47
2018-03-07T04:49:43.498Z,43.67
2018-03-07T04:52:12.018Z,40.17
2018-03-07T04:54:39.769Z,42.78
2018-03-07T04:57:07.575Z,51.55
2018-03-07T04:59:35.323Z,48.72
2018-03-07T05:02:03.859Z,44.00
2018-03-07T05:04:31.674Z,49.33
2018-03-07T05:06:59.421Z,53.67
2018-03-07T05:09:27.169Z,75.28
2018-03-07T05:11:54.987Z,56.67
2018-03-07T05:14:22.738Z,46.55
2018-03-07T05:16:50.490Z,56.35
2018-03-07T05:19:18.293Z,46.25
2018-03-07T05:21:46.060Z,36.42
2018-03-07T05:24:13.813Z,43.63
2018-03-07T05:26:42.381Z,39.92
2018-03-07T05:29:10.916Z,40.53
2018-03-07T05:31:38.674Z,32.67
2018-03-07T05:34:06.850Z,37.63
2018-03-07T05:36:34.610Z,39.35
2018-03-07T05:39:02.358Z,45.08
2018-03-07T05:41:30.177Z,44.05
2018-03-07T05:43:58.691Z,45.92
2018-03-07T05:46:26.473Z,42.00
2018-03-07T05:48:54.289Z,37.78
2018-03-07T05:51:22.806Z,37.75
2018-03-07T05:53:50.570Z,37.95
2018-03-07T05:56:18.371Z,45.63
2018-03-07T05:58:46.122Z,38.03
2018-03-07T06:01:13.876Z,46.22
2018-03-07T06:03:42.060Z,42.53
2018-03-07T06:06:09.812Z,51.37
2018-03-07T06:08:37.563Z,45.15
2018-03-07T06:11:05.369Z,49.25
2018-03-07T06:13:33.893Z,46.83
2018-03-07T06:16:01.687Z,49.33
2018-03-07T06:18:29.500Z,42.15
2018-03-07T06:20:57.268Z,33.90
2018-03-07T06:23:25.027Z,40.50
2018-03-07T06:25:52.837Z,37.88
2018-03-07T06:28:20.599Z,40.90
2018-03-07T06:30:48.366Z,42.17
2018-03-07T06:33:16.229Z,44.08
2018-03-07T06:35:43.994Z,43.45
2018-03-07T06:38:11.754Z,40.05
2018-03-07T06:40:39.558Z,46.63
2018-03-07T06:43:07.312Z,49.67
2018-03-07T06:45:35.076Z,53.40
2018-03-07T06:48:02.876Z,45.17
2018-03-07T06:50:30.625Z,52.95
2018-03-07T06:52:58.394Z,44.17
2018-03-07T06:55:26.208Z,39.92
2018-03-07T06:57:54.740Z,52.60
2018-03-07T07:00:22.502Z,39.63
2018-03-07T07:02:50.313Z,55.80
2018-03-07T07:05:18.838Z,48.15
2018-03-07T07:07:46.582Z,45.60
2018-03-07T07:10:14.401Z,43.40
2018-03-07T07:12:42.206Z,46.35
2018-03-07T07:15:10.008Z,52.25
2018-03-07T07:17:37.825Z,48.38
2018-03-07T07:20:05.629Z,45.67
2018-03-07T07:22:33.382Z,49.28
2018-03-07T07:25:01.199Z,49.35
2018-03-07T07:27:29.735Z,44.03
2018-03-07T07:29:57.494Z,51.88
2018-03-07T07:32:25.298Z,52.62
2018-03-07T07:34:53.814Z,58.83
2018-03-07T07:37:21.580Z,51.10
2018-03-07T07:39:49.398Z,55.60
2018-03-07T07:42:17.926Z,56.78
2018-03-07T07:44:45.681Z,50.88
2018-03-07T07:47:13.533Z,54.20
2018-03-07T07:49:41.312Z,52.62
2018-03-07T07:52:09.096Z,58.70
2018-03-07T07:54:36.937Z,54.83
2018-03-07T07:57:04.704Z,52.85
2018-03-07T07:59:32.474Z,55.17
2018-03-07T08:02:00.278Z,53.75
2018-03-07T08:04:28.806Z,55.33
2018-03-07T08:06:56.566Z,52.92
2018-03-07T08:09:24.378Z,57.40
2018-03-07T08:11:52.902Z,53.85
2018-03-07T08:14:20.655Z,70.20
2018-03-07T08:16:48.471Z,60.72
2018-03-07T08:19:16.231Z,50.58
2018-03-07T08:21:43.987Z,57.75
2018-03-07T08:24:11.791Z,59.60
2018-03-07T08:26:39.542Z,67.20
2018-03-07T08:29:07.293Z,57.55
2018-03-07T08:31:35.871Z,56.90
2018-03-07T08:34:04.392Z,64.68
2018-03-07T08:36:32.146Z,57.25
2018-03-07T08:38:59.947Z,59.70
2018-03-07T08:41:27.699Z,57.25
2018-03-07T08:43:55.482Z,57.45
2018-03-07T08:46:23.298Z,69.43
2018-03-07T08:48:51.091Z,62.30
2018-03-07T08:51:18.845Z,63.80
2018-03-07T08:53:46.647Z,64.15
2018-03-07T08:56:15.167Z,66.28
2018-03-07T08:58:42.919Z,63.97
2018-03-07T09:01:10.724Z,57.17
2018-03-07T09:03:38.504Z,63.20
2018-03-07T09:06:06.263Z,63.60
2018-03-07T09:08:34.074Z,57.50
2018-03-07T09:11:01.823Z,63.38
2018-03-07T09:13:29.576Z,69.72
2018-03-07T09:15:58.144Z,62.65
2018-03-07T09:18:26.672Z,53.33
2018-03-07T09:20:54.423Z,67.97
2018-03-07T09:23:22.253Z,72.32
2018-03-07T09:25:50.783Z,84.72
2018-03-07T09:28:18.542Z,90.87
2018-03-07T09:30:46.368Z,68.93
2018-03-07T09:33:14.887Z,62.80
2018-03-07T09:35:42.638Z,75.12
2018-03-07T09:38:10.437Z,66.53
2018-03-07T09:40:38.200Z,79.97
2018-03-07T09:43:05.982Z,67.85
2018-03-07T09:45:33.799Z,66.10
2018-03-07T09:48:01.559Z,59.88
2018-03-07T09:50:29.315Z,73.82
2018-03-07T09:52:57.126Z,77.90
2018-03-07T09:55:25.671Z,68.65
2018-03-07T09:57:53.426Z,70.28
2018-03-07T10:00:22.002Z,74.40
2018-03-07T10:02:49.754Z,64.35
2018-03-07T10:05:17.514Z,70.47
2018-03-07T10:07:45.325Z,66.60
2018-03-07T10:10:13.081Z,77.57
2018-03-07T10:12:40.827Z,70.03
2018-03-07T10:15:08.634Z,75.80
2018-03-07T10:17:37.147Z,66.82
2018-03-07T10:20:04.894Z,60.12
2018-03-07T10:22:32.698Z,61.45
2018-03-07T10:25:00.446Z,68.15
2018-03-07T10:27:28.203Z,65.03
2018-03-07T10:29:56.019Z,63.87
2018-03-07T10:32:23.862Z,67.18
2018-03-07T10:34:51.627Z,62.65
2018-03-07T10:37:19.473Z,60.58
2018-03-07T10:39:47.246Z,60.40
2018-03-07T10:42:15.015Z,57.08
2018-03-07T10:44:42.829Z,64.43
2018-03-07T10:47:10.618Z,59.63
2018-03-07T10:49:39.207Z,59.17
2018-03-07T10:52:07.019Z,74.07
2018-03-07T10:54:34.780Z,53.55
2018-03-07T10:57:02.535Z,55.30
2018-03-07T10:59:30.374Z,54.83
2018-03-07T11:01:58.902Z,51.72
2018-03-07T11:04:26.693Z,38.47
2018-03-07T11:06:54.526Z,41.50
2018-03-07T11:09:22.280Z,38.20
2018-03-07T11:11:50.044Z,45.92
2018-03-07T11:14:17.872Z,32.45
2018-03-07T11:16:46.430Z,33.95
2018-03-07T11:19:14.219Z,30.95
2018-03-07T11:21:42.787Z,28.48
2018-03-07T11:24:10.564Z,36.25
2018-03-07T11:26:39.110Z,29.70
2018-03-07T11:29:07.721Z,31.83
2018-03-07T11:31:36.262Z,36.92
2018-03-07T11:34:04.039Z,29.58
2018-03-07T11:36:31.883Z,26.92
2018-03-07T11:38:59.644Z,27.45
2018-03-07T11:41:27.432Z,27.65
2018-03-07T11:43:55.307Z,27.67
2018-03-07T11:46:23.824Z,26.00
2018-03-07T11:48:51.575Z,26.27
2018-03-07T11:51:19.390Z,25.85
2018-03-07T11:53:47.143Z,28.05
2018-03-07T11:56:15.667Z,29.12
2018-03-07T11:58:43.491Z,31.42
2018-03-07T12:01:11.256Z,29.80
2018-03-07T12:03:39.023Z,26.35
2018-03-07T12:06:06.842Z,26.65
2018-03-07T12:08:34.615Z,23.83
2018-03-07T12:11:02.373Z,26.98
2018-03-07T12:13:30.193Z,29.67
2018-03-07T12:15:58.725Z,30.33
2018-03-07T12:18:26.487Z,30.00
2018-03-07T12:20:54.296Z,30.62
2018-03-07T12:23:22.821Z,28.85
2018-03-07T12:25:50.582Z,27.98
2018-03-07T12:28:18.403Z,28.85
2018-03-07T12:30:46.939Z,31.62
2018-03-07T12:33:14.702Z,35.20
2018-03-07T12:35:42.516Z,36.03
2018-03-07T12:38:11.043Z,35.97
2018-03-07T12:40:38.831Z,38.35
2018-03-07T12:43:06.674Z,37.45
2018-03-07T12:45:34.437Z,43.40
2018-03-07T12:48:02.196Z,41.92
2018-03-07T12:50:30.008Z,36.28
2018-03-07T12:52:58.574Z,33.13
2018-03-07T12:55:27.110Z,38.00
2018-03-07T12:57:54.958Z,42.83
2018-03-07T13:00:22.718Z,34.60
2018-03-07T13:02:50.490Z,38.13
2018-03-07T13:05:18.298Z,39.78
2018-03-07T13:07:46.835Z,47.55
2018-03-07T13:10:14.601Z,42.35
2018-03-07T13:12:42.606Z,42.42
2018-03-07T13:15:10.368Z,38.58
2018-03-07T13:17:38.139Z,40.35
2018-03-07T13:20:06.731Z,39.53
2018-03-07T13:22:35.262Z,38.83
2018-03-07T13:25:03.023Z,33.85
2018-03-07T13:27:30.842Z,35.92
2018-03-07T13:29:59.360Z,35.75
2018-03-07T13:32:27.926Z,33.38
2018-03-07T13:34:55.750Z,43.30
2018-03-07T13:37:24.286Z,39.08
2018-03-07T13:39:52.046Z,36.60
2018-03-07T13:42:19.858Z,43.67
2018-03-07T13:44:48.410Z,38.28
2018-03-07T13:47:16.207Z,39.33
2018-03-07T13:49:44.778Z,40.90
2018-03-07T13:52:13.297Z,39.10
2018-03-07T13:54:41.066Z,34.55
2018-03-07T13:57:08.878Z,34.35
2018-03-07T13:59:37.419Z,29.40
2018-03-07T14:02:05.192Z,32.75
2018-03-07T14:04:33.007Z,38.25
2018-03-07T14:07:01.371Z,34.45
2018-03-07T14:09:30.557Z,33.08
2018-03-07T14:11:58.461Z,31.17
2018-03-07T14:14:26.230Z,26.62
2018-03-07T14:16:54.016Z,29.08
2018-03-07T14:19:21.864Z,25.83
2018-03-07T14:21:49.633Z,23.02
2018-03-07T14:24:17.418Z,27.58
2018-03-07T14:26:46.079Z,26.33
2018-03-07T14:29:13.854Z,31.10
2018-03-07T14:31:41.627Z,31.70
2018-03-07T14:34:09.444Z,31.52
2018-03-07T14:36:37.225Z,29.90
2018-03-07T14:39:05.023Z,26.37
2018-03-07T14:41:33.636Z,28.42
2018-03-07T14:44:01.422Z,31.17
2018-03-07T14:46:29.189Z,28.48
2018-03-07T14:48:57.016Z,29.85
2018-03-07T14:51:24.791Z,28.58
2018-03-07T14:53:52.582Z,29.10
2018-03-07T14:56:20.411Z,26.40
2018-03-07T14:58:48.194Z,29.00
2018-03-07T15:01:15.978Z,27.77
2018-03-07T15:03:43.813Z,30.37
2018-03-07T15:06:11.583Z,29.87
2018-03-07T15:08:39.356Z,31.52
2018-03-07T15:11:07.178Z,29.80
2018-03-07T15:13:34.964Z,27.60
2018-03-07T15:16:02.732Z,28.48
2018-03-07T15:18:30.548Z,30.83
2018-03-07T15:20:59.080Z,32.00
2018-03-07T15:23:26.855Z,28.98
2018-03-07T15:25:54.688Z,30.10
2018-03-07T15:28:22.468Z,31.55
2018-03-07T15:30:50.249Z,35.25
2018-03-07T15:33:18.089Z,38.42
2018-03-07T15:35:45.900Z,40.58
2018-03-07T15:38:14.441Z,35.13
2018-03-07T15:40:42.293Z,38.22
2018-03-07T15:43:10.066Z,41.37
2018-03-07T15:45:37.844Z,38.28
2018-03-07T15:48:05.669Z,42.38
2018-03-07T15:50:33.469Z,43.45
2018-03-07T15:53:01.265Z,38.30
2018-03-07T15:55:30.037Z,40.78
2018-03-07T15:57:57.839Z,39.38
2018-03-07T16:00:25.615Z,41.25
2018-03-07T16:02:53.539Z,35.20
2018-03-07T16:05:22.086Z,36.40
2018-03-07T16:07:49.843Z,41.47
2018-03-07T16:10:17.650Z,43.50
2018-03-07T16:12:46.195Z,54.65
2018-03-07T16:15:13.970Z,51.80
2018-03-07T16:17:41.793Z,50.95
2018-03-07T16:20:09.566Z,53.40
2018-03-07T16:22:37.337Z,54.17
2018-03-07T16:25:05.162Z,51.42
2018-03-07T16:27:32.932Z,45.12
2018-03-07T16:30:01.473Z,52.22
2018-03-07T16:32:30.060Z,46.83
2018-03-07T16:34:58.630Z,47.97
2018-03-07T16:37:26.384Z,48.05
2018-03-07T16:39:54.194Z,47.58
2018-03-07T16:42:21.975Z,47.83
2018-03-07T16:44:49.784Z,42.00
2018-03-07T16:47:18.364Z,44.63
2018-03-07T16:49:46.879Z,42.40
2018-03-07T16:52:14.667Z,47.50
2018-03-07T16:54:42.471Z,42.17
2018-03-07T16:57:10.999Z,44.97
2018-03-07T16:59:38.767Z,42.53
2018-03-07T17:02:06.748Z,52.05
2018-03-07T17:04:34.505Z,42.08
2018-03-07T17:07:02.259Z,44.20
2018-03-07T17:09:30.076Z,46.90
2018-03-07T17:11:58.599Z,44.92
2018-03-07T17:14:27.235Z,50.03
2018-03-07T17:16:55.868Z,46.10
2018-03-07T17:19:23.656Z,45.90
2018-03-07T17:21:51.422Z,54.65
2018-03-07T17:24:19.230Z,52.50
2018-03-07T17:26:46.992Z,59.20
2018-03-07T17:29:14.794Z,56.28
2018-03-07T17:31:42.603Z,64.90
2018-03-07T17:34:10.362Z,78.07
2018-03-07T17:36:38.224Z,71.47
2018-03-07T17:39:06.049Z,73.82
2018-03-07T17:41:34.026Z,72.53
2018-03-07T17:44:01.835Z,79.62
2018-03-07T17:46:29.655Z,81.97
2018-03-07T17:48:57.458Z,71.65
2018-03-07T17:51:25.210Z,72.35
2018-03-07T17:53:54.243Z,83.95
2018-03-07T17:56:22.018Z,90.68
2018-03-07T17:58:49.798Z,80.38
2018-03-07T18:01:18.384Z,78.20
2018-03-07T18:03:47.351Z,78.35
2018-03-07T18:06:15.164Z,87.65
2018-03-07T18:08:42.978Z,77.60
2018-03-07T18:11:10.740Z,73.47
2018-03-07T18:13:38.514Z,84.25
2018-03-07T18:16:06.417Z,81.55
2018-03-07T18:18:34.282Z,84.55
2018-03-07T18:21:03.181Z,81.03
2018-03-07T18:23:31.035Z,75.53
2018-03-07T18:25:58.814Z,72.32
2018-03-07T18:28:26.615Z,74.03
2018-03-07T18:30:54.439Z,80.07
2018-03-07T18:33:22.196Z,71.30
2018-03-07T18:35:49.953Z,72.37
2018-03-07T18:38:17.973Z,82.32
2018-03-07T18:40:45.793Z,71.30
2018-03-07T18:43:19.060Z,94.32
2018-03-07T18:45:58.734Z,87.97
2018-03-07T18:48:30.764Z,73.55
2018-03-07T18:51:05.781Z,74.72
2018-03-07T18:53:34.309Z,74.85
2018-03-07T18:56:03.154Z,67.15
2018-03-07T18:58:30.968Z,79.00
2018-03-07T19:00:58.840Z,81.32
2018-03-07T19:03:26.636Z,68.90
2018-03-07T19:05:55.218Z,87.15
2018-03-07T19:08:23.062Z,90.97
2018-03-07T19:10:54.576Z,86.25
2018-03-07T19:13:22.363Z,102.80
2018-03-07T19:15:54.871Z,118.80
2018-03-07T19:18:22.668Z,119.47
2018-03-07T19:23:26.450Z,91.55
2018-03-07T19:25:54.266Z,90.45
2018-03-07T19:28:22.041Z,90.18
2018-03-07T19:30:49.868Z,89.62
2018-03-07T19:33:17.676Z,82.65
2018-03-07T19:35:46.253Z,82.97
2018-03-07T19:38:14.862Z,98.43
2018-03-07T19:40:43.447Z,82.97
2018-03-07T19:43:11.303Z,88.53
2018-03-07T19:45:39.896Z,83.30
2018-03-07T19:48:07.735Z,87.62
2018-03-07T19:50:36.302Z,104.93
2018-03-07T19:53:04.155Z,89.50
2018-03-07T19:55:31.938Z,87.10
2018-03-07T19:58:00.509Z,97.18
2018-03-07T20:00:28.384Z,114.78
2018-03-07T20:02:56.917Z,90.43
2018-03-07T20:05:24.671Z,96.65
2018-03-07T20:07:52.887Z,102.68
2018-03-07T20:10:20.644Z,93.15
2018-03-07T20:12:48.401Z,101.12
2018-03-07T20:15:16.214Z,92.97
2018-03-07T20:17:44.000Z,83.00
2018-03-07T20:20:11.780Z,95.57
2018-03-07T20:22:39.588Z,69.22
2018-03-07T20:25:08.115Z,75.82
2018-03-07T20:27:35.903Z,90.68
2018-03-07T20:30:03.736Z,79.53
2018-03-07T20:32:31.487Z,73.07
2018-03-07T20:34:59.277Z,61.90
2018-03-07T20:37:27.095Z,70.57
2018-03-07T20:39:54.849Z,69.65
2018-03-07T20:42:26.056Z,64.78
2018-03-07T20:44:54.651Z,76.40
2018-03-07T20:47:23.170Z,66.95
2018-03-07T20:49:50.962Z,67.95
2018-03-07T20:52:18.766Z,84.35
2018-03-07T20:54:47.282Z,77.12
2018-03-07T20:57:15.039Z,74.78
2018-03-07T20:59:42.863Z,73.03
2018-03-07T21:02:11.391Z,80.97
2018-03-07T21:04:39.134Z,77.20
2018-03-07T21:07:06.939Z,73.90
2018-03-07T21:09:38.470Z,77.40
2018-03-07T21:12:06.220Z,78.50
2018-03-07T21:14:34.038Z,76.72
2018-03-07T21:17:05.534Z,68.00
2018-03-07T21:19:33.350Z,78.93
2018-03-07T21:22:01.912Z,65.72
2018-03-07T21:24:29.676Z,63.45
2018-03-07T21:26:58.263Z,79.72
2018-03-07T21:29:26.020Z,64.20
2018-03-07T21:31:53.775Z,72.32
2018-03-07T21:34:21.587Z,72.40
2018-03-07T21:36:49.349Z,60.45
2018-03-07T21:39:17.116Z,63.72
2018-03-07T21:41:44.926Z,78.10
2018-03-07T21:44:12.680Z,71.87
2018-03-07T21:46:40.433Z,69.90
2018-03-07T21:49:08.255Z,64.62
2018-03-07T21:51:36.019Z,70.28
2018-03-07T21:54:03.794Z,62.62
2018-03-07T21:56:31.613Z,65.90
2018-03-07T21:58:59.370Z,60.17
2018-03-07T22:01:27.135Z,57.50
2018-03-07T22:03:54.947Z,65.55
2018-03-07T22:06:22.708Z,56.97
2018-03-07T22:08:50.478Z,54.60
2018-03-07T22:11:18.281Z,60.70
2018-03-07T22:13:46.038Z,54.38
2018-03-07T22:16:13.798Z,59.13
2018-03-07T22:18:41.758Z,61.40
2018-03-07T22:21:09.512Z,53.63
2018-03-07T22:23:38.070Z,49.53
2018-03-07T22:26:05.871Z,58.65
2018-03-07T22:28:33.625Z,58.95
2018-03-07T22:31:01.394Z,62.83
2018-03-07T22:33:29.195Z,63.95
2018-03-07T22:35:56.946Z,70.85
2018-03-07T22:38:25.517Z,73.60
2018-03-07T22:40:54.090Z,65.18
2018-03-07T22:43:21.854Z,62.70
2018-03-07T22:45:49.607Z,58.38
2018-03-07T22:48:17.451Z,61.47
2018-03-07T22:50:45.217Z,54.33
2018-03-07T22:53:12.971Z,50.50
2018-03-07T22:55:41.044Z,68.18
2018-03-07T22:58:08.965Z,65.12
2018-03-07T23:00:42.407Z,65.45
2018-03-07T23:03:10.922Z,61.50
2018-03-07T23:05:39.446Z,57.38
2018-03-07T23:08:07.251Z,61.35
2018-03-07T23:10:35.036Z,54.30
2018-03-07T23:13:04.698Z,68.05
2018-03-07T23:15:32.506Z,60.83
2018-03-07T23:18:01.026Z,58.15
2018-03-07T23:20:28.774Z,58.65
2018-03-07T23:22:56.582Z,57.15
2018-03-07T23:25:25.483Z,62.22
2018-03-07T23:27:53.994Z,57.17
2018-03-07T23:30:21.800Z,57.83
2018-03-07T23:32:49.551Z,55.83
2018-03-07T23:35:17.301Z,52.85
2018-03-07T23:37:45.150Z,51.70
2018-03-07T23:40:12.923Z,58.72
2018-03-07T23:42:40.667Z,50.25
2018-03-07T23:45:08.475Z,55.38
2018-03-07T23:47:36.227Z,53.80
2018-03-07T23:50:03.990Z,63.78
2018-03-07T23:52:31.820Z,62.60
2018-03-07T23:54:59.590Z,55.50
2018-03-07T23:57:27.368Z,60.00
2018-03-07T23:59:55.174Z,66.25
